Flight Track Log - Related Links

Times and Time Zones

All times are in EDT time to prevent confusion due to time zone crossing. See the AAL1642 flight status page for this flight to view local times or setup timezone preferences in your user account.

Time Position Orientation Groundspeed Altitude Reporting Facility
EDT Latitude Longitude Course Direction KTS MPH feet Rate Location/Type
Wed 11:50:53 AM 41.9167 -87.8833 163° South 193 222 2,900  Level Chicago TRACON
Wed 11:51:53 AM 41.8500 -87.8500 160° South 244 281 4,900 2,406 Climbing Chicago TRACON
Wed 11:52:00 AM 41.7620 -87.5277 158° South  Level Estimated
Wed 11:53:00 AM 41.6886 -87.4020 153° Southeast  Level Estimated
Wed 11:54:00 AM 41.6149 -87.2765 159° South  Level Estimated
Wed 11:54:25 AM 41.6814 -87.7469 155° Southeast 288 331 11,400  Level Chicago Center
Wed 11:55:00 AM 41.5412 -87.1513 180° South  Level Estimated
Wed 11:55:27 AM 41.5894 -87.6842 153° Southeast 306 352 14,500  Level Chicago Center
Wed 11:56:00 AM 41.4738 -87.0374 163° South  Level Estimated
Wed 11:56:29 AM 41.5014 -87.6250 153° Southeast 348 400 15,800  Level Chicago Center
Wed 11:57:31 AM 41.3997 -87.5675 157° South 389 448 17,900 2,064 Climbing Chicago Center
Wed 11:58:34 AM 41.2869 -87.5500 173° South 405 466 20,100 1,920 Climbing Chicago Center
Wed 11:59:36 AM 41.1694 -87.5258 171° South 422 486 21,900 1,839 Climbing Chicago Center
Wed 12:00:38 PM 41.0497 -87.4933 168° South 437 503 23,900 2,032 Climbing Chicago Center
Wed 12:01:40 PM 40.9058 -87.4536 168° South 440 506 26,100 1,742 Climbing Chicago Center
Wed 12:02:42 PM 40.7819 -87.4236 170° South 451 519 27,500 1,306 Climbing Chicago Center
Wed 12:03:44 PM 40.6722 -87.3408 150° Southeast 461 531 28,800 1,452 Climbing Chicago Center
Wed 12:04:46 PM 40.5878 -87.2089 130° Southeast 470 541 30,500 1,597 Climbing Chicago Center
Wed 12:05:48 PM 40.5031 -87.0736 129° Southeast 462 532 32,100 1,452 Climbing Chicago Center
Wed 12:06:50 PM 40.4228 -86.9481 130° Southeast 453 521 33,500 1,355 Climbing Chicago Center
Wed 12:07:52 PM 40.3433 -86.8258 130° Southeast 443 510 34,900 726 Climbing Chicago Center
Wed 12:08:54 PM 40.2667 -86.7044 130° Southeast 435 501 35,000 48 Climbing Chicago Center
Wed 12:09:56 PM 40.1703 -86.5575 131° Southeast 442 509 35,000  Level Chicago Center
Wed 12:10:45 PM 40.1050 -86.4581 131° Southeast 443 510 35,000  Level Indianapolis Center
Wed 12:11:47 PM 40.0247 -86.3356 131° Southeast 441 507 35,000  Level Indianapolis Center
Wed 12:12:49 PM 39.9439 -86.2125 131° Southeast 444 511 35,000  Level Indianapolis Center
Wed 12:13:50 PM 39.8631 -86.0886 130° Southeast 441 507 35,000  Level Indianapolis Center
Wed 12:14:52 PM 39.7803 -85.9653 131° Southeast 446 513 35,000  Level Indianapolis Center
Wed 12:15:54 PM 39.6989 -85.8425 131° Southeast 446 513 35,000  Level Indianapolis Center
Wed 12:16:55 PM 39.6172 -85.7208 131° Southeast 447 514 35,000  Level Indianapolis Center
Wed 12:17:57 PM 39.5350 -85.5986 131° Southeast 449 517 35,000  Level Indianapolis Center
Wed 12:18:59 PM 39.4372 -85.4536 131° Southeast 447 514 35,000  Level Indianapolis Center
Wed 12:20:00 PM 39.3547 -85.3314 131° Southeast 452 520 35,000  Level Indianapolis Center
Wed 12:21:02 PM 39.2714 -85.2092 131° Southeast 454 522 35,000  Level Indianapolis Center
Wed 12:22:04 PM 39.1881 -85.0878 132° Southeast 453 521 35,000  Level Indianapolis Center
Wed 12:23:05 PM 39.1056 -84.9672 131° Southeast 451 519 35,000 -49 Level Indianapolis Center
Wed 12:24:07 PM 39.0186 -84.8383 131° Southeast 455 524 34,900 -48 Descending Indianapolis Center
Wed 12:25:09 PM 38.9328 -84.7169 132° Southeast 456 525 34,900 48 Level Indianapolis Center
Wed 12:26:11 PM 38.8375 -84.5778 131° Southeast 456 525 35,000  Climbing Indianapolis Center
Wed 12:27:12 PM 38.7497 -84.4514 132° Southeast 459 528 34,900  Descending Indianapolis Center
Wed 12:28:14 PM 38.6636 -84.3292 132° Southeast 455 524 35,000 48 Climbing Indianapolis Center
Wed 12:29:16 PM 38.6181 -84.1794 111° Southeast 452 520 35,000  Level Indianapolis Center
Wed 12:30:17 PM 38.5786 -84.0303 109° East 444 511 35,000  Level Indianapolis Center
Wed 12:31:19 PM 38.5408 -83.8789 108° East 446 513 35,000  Level Indianapolis Center
Wed 12:32:21 PM 38.5000 -83.7258 109° East 452 520 35,000  Level Indianapolis Center
Wed 12:33:23 PM 38.4600 -83.5747 109° East 450 518 35,000  Level Indianapolis Center
Wed 12:34:24 PM 38.4133 -83.3969 108° East 451 519 35,000  Level Indianapolis Center
Wed 12:35:26 PM 38.3722 -83.2450 109° East 453 521 35,000  Level Indianapolis Center
Wed 12:36:28 PM 38.3314 -83.0925 109° East 453 521 35,000  Level Indianapolis Center
Wed 12:37:30 PM 38.2900 -82.9389 109° East 457 526 35,000 -387 Level Indianapolis Center
Wed 12:38:32 PM 38.2481 -82.7844 109° East 459 528 34,200 -878 Descending Indianapolis Center
Wed 12:39:33 PM 38.2053 -82.6286 109° East 462 532 33,200 -927 Descending Indianapolis Center
Wed 12:40:35 PM 38.1642 -82.4800 109° East 468 539 32,300 -581 Descending Indianapolis Center
Wed 12:41:37 PM 38.1122 -82.2914 109° East 475 547 32,000 -145 Descending Indianapolis Center
Wed 12:42:39 PM 38.0703 -82.1358 109° East 471 542 32,000  Level Indianapolis Center
Wed 12:43:40 PM 38.0250 -81.9783 110° East 476 548 32,000  Level Indianapolis Center
Wed 12:44:42 PM 37.9803 -81.8197 110° East 480 552 32,000  Level Indianapolis Center
Wed 12:45:44 PM 37.9353 -81.6589 109° East 485 558 32,000 -387 Level Indianapolis Center
Wed 12:46:46 PM 37.8892 -81.4972 110° East 488 562 31,200 -1,210 Descending Indianapolis Center
Wed 12:47:48 PM 37.8333 -81.3047 110° East 490 564 29,500 -1,451 Descending Indianapolis Center
Wed 12:48:17 PM 37.8089 -81.2328 113° Southeast 491 565 29,000 -333 Descending Washington Center
Wed 12:49:18 PM 37.7542 -81.0658 112° Southeast 507 583 29,000  Level Washington Center
Wed 12:50:18 PM 37.6883 -80.9089 118° Southeast 507 583 29,000  Level Washington Center
Wed 12:51:17 PM 37.6242 -80.7494 117° Southeast 507 583 29,000  Level Washington Center
Wed 12:52:18 PM 37.5600 -80.5958 118° Southeast 507 583 29,000  Level Washington Center
Wed 12:53:18 PM 37.4842 -80.4625 126° Southeast 512 589 29,000 -149 Level Washington Center
Wed 12:54:19 PM 37.4044 -80.3136 124° Southeast 512 589 28,700 -864 Descending Washington Center
Wed 12:55:16 PM 37.3203 -80.1700 126° Southeast 512 589 27,300 -1,932 Descending Washington Center
Wed 12:56:17 PM 37.2325 -80.0083 124° Southeast 512 589 24,900 -1,736 Descending Washington Center
Wed 12:57:17 PM 37.1542 -79.8681 125° Southeast 512 589 23,800 -1,190 Descending Washington Center
Wed 12:58:18 PM 37.0775 -79.7311 125° Southeast 506 582 22,500 -1,377 Descending Washington Center
Wed 12:59:19 PM 37.0128 -79.6158 125° Southeast 474 545 21,000 -814 Descending Washington Center
Wed 01:00:16 PM 36.9458 -79.4903 124° Southeast 456 525 20,900 -407 Descending Washington Center
Wed 01:01:17 PM 36.8769 -79.3672 125° Southeast 439 505 20,200 -1,525 Descending Washington Center
Wed 01:02:18 PM 36.8075 -79.2472 126° Southeast 439 505 17,800 -2,430 Descending Washington Center
Wed 01:03:18 PM 36.7189 -79.1419 136° Southeast 405 466 15,300 -2,280 Descending Washington Center
Wed 01:03:58 PM 36.6594 -79.1106 157° South 368 423 14,000 -1,672 Descending Washington Center
Wed 01:04:19 PM 36.6369 -79.0914 146° Southeast 398 458 13,600 -2,047 Descending Washington Center
Wed 01:05:23 PM 36.5306 -79.0247 153° Southeast 354 407 11,100 -1,815 Descending Washington Center
Wed 01:06:18 PM 36.4650 -78.9806 152° Southeast 353 406 10,000 -574 Descending Washington Center
Wed 01:07:18 PM 36.3769 -78.9172 150° Southeast 335 386 10,000  Level Washington Center
Wed 01:08:31 PM 36.2936 -78.8417 144° Southeast 271 312 10,000 -458 Level Washington Center
Wed 01:09:16 PM 36.2528 -78.8014 141° Southeast 276 318 9,100 -1,279 Descending Washington Center
Wed 01:09:32 PM 36.2386 -78.7931 155° Southeast 234 269 8,700 -1,279 Descending Washington Center
Wed 01:10:17 PM 36.1997 -78.7553 142° Southeast 254 292 7,800 -1,300 Descending Washington Center
Wed 01:10:32 PM 36.1833 -78.7444 152° Southeast 236 272 7,400 -1,400 Descending Washington Center
Wed 01:11:17 PM 36.1533 -78.6969 128° Southeast 243 280 6,400 -1,300 Descending Washington Center
Wed 01:11:32 PM 36.1392 -78.6836 143° Southeast 236 272 6,100 -393 Descending Washington Center
Wed 01:12:18 PM 36.1194 -78.6417 120° Southeast 232 267 6,000 -492 Descending Washington Center
Wed 01:12:33 PM 36.1053 -78.6206 130° Southeast 216 249 5,600 -1,000 Descending Washington Center
Wed 01:13:18 PM 36.0833 -78.5836 126° Southeast 221 254 5,000 -1,082 Descending Washington Center
Wed 01:13:34 PM 36.0644 -78.5803 172° South 193 222 4,500 -1,421 Descending Washington Center
Wed 01:14:34 PM 36.0239 -78.6172 216° Southwest 177 204 3,200 -1,150 Descending Washington Center
Wed 01:15:34 PM 35.9894 -78.6622 227° Southwest 185 213 2,200 -532 Descending Washington Center
Wed 01:16:38 PM 35.9528 -78.7069 225° Southwest 177 204 2,100 -414 Descending Washington Center
Wed 01:17:30 PM 35.9247 -78.7392 223° Southwest 152 175 1,400 -804 Descending Washington Center
Wed 01:18:30 PM 35.8967 -78.7742 225° Southwest 126 145 600 -800 Descending Washington Center
Wed 01:20:00 PM 35.8776 -78.7875 223° Southwest  Level Estimated
Wed 01:27:00 PM 35.8776 -78.7875 223° Southwest  Level Estimated
Wed 01:28:00 PM 35.8776 -78.7875 223° Southwest  Level Estimated
Wed 01:29:00 PM 35.8776 -78.7875 223° Southwest  Level Estimated

Login

Don't have an account? Register now (free) for customized features, flight alerts, and more!